sensor_id;sensor_type;location;lat;lon;timestamp;P1;durP1;ratioP1;P2;durP2;ratioP2
78781;SDS011;68126;55.748;48.742;2023-04-24T00:01:21;3.75;;;2.22;;
78781;SDS011;68126;55.748;48.742;2023-04-24T00:06:45;3.75;;;3.37;;
78781;SDS011;68126;55.748;48.742;2023-04-24T00:12:12;6.53;;;1.65;;
78781;SDS011;68126;55.748;48.742;2023-04-24T00:17:36;7.65;;;1.35;;
78781;SDS011;68126;55.748;48.742;2023-04-24T00:23:02;2.90;;;1.67;;
78781;SDS011;68126;55.748;48.742;2023-04-24T00:28:26;2.92;;;1.25;;
78781;SDS011;68126;55.748;48.742;2023-04-24T00:33:51;2.70;;;2.27;;
78781;SDS011;68126;55.748;48.742;2023-04-24T00:39:16;4.10;;;1.77;;
78781;SDS011;68126;55.748;48.742;2023-04-24T00:44:42;3.52;;;1.40;;
78781;SDS011;68126;55.748;48.742;2023-04-24T00:50:08;2.65;;;1.35;;
78781;SDS011;68126;55.748;48.742;2023-04-24T00:55:34;2.00;;;1.65;;
78781;SDS011;68126;55.748;48.742;2023-04-24T01:00:59;3.00;;;1.67;;
78781;SDS011;68126;55.748;48.742;2023-04-24T01:06:27;3.95;;;2.20;;
78781;SDS011;68126;55.748;48.742;2023-04-24T01:11:50;3.77;;;1.80;;
78781;SDS011;68126;55.748;48.742;2023-04-24T01:17:15;4.08;;;1.05;;
78781;SDS011;68126;55.748;48.742;2023-04-24T01:22:40;1.85;;;0.75;;
78781;SDS011;68126;55.748;48.742;2023-04-24T01:28:04;1.98;;;1.25;;
78781;SDS011;68126;55.748;48.742;2023-04-24T01:33:29;3.67;;;1.37;;
78781;SDS011;68126;55.748;48.742;2023-04-24T01:38:54;4.58;;;1.10;;
78781;SDS011;68126;55.748;48.742;2023-04-24T01:44:18;4.25;;;1.10;;
78781;SDS011;68126;55.748;48.742;2023-04-24T01:49:43;2.85;;;1.00;;
78781;SDS011;68126;55.748;48.742;2023-04-24T01:55:09;3.83;;;1.90;;
78781;SDS011;68126;55.748;48.742;2023-04-24T02:00:34;3.37;;;1.05;;
78781;SDS011;68126;55.748;48.742;2023-04-24T02:05:59;4.10;;;1.92;;
78781;SDS011;68126;55.748;48.742;2023-04-24T02:11:24;3.30;;;1.35;;
78781;SDS011;68126;55.748;48.742;2023-04-24T02:22:35;4.60;;;0.90;;
78781;SDS011;68126;55.748;48.742;2023-04-24T02:28:00;3.02;;;0.95;;
78781;SDS011;68126;55.748;48.742;2023-04-24T02:33:25;2.70;;;2.50;;
78781;SDS011;68126;55.748;48.742;2023-04-24T02:38:49;2.37;;;0.88;;
78781;SDS011;68126;55.748;48.742;2023-04-24T02:44:14;4.67;;;1.90;;
78781;SDS011;68126;55.748;48.742;2023-04-24T02:49:39;3.60;;;1.12;;
78781;SDS011;68126;55.748;48.742;2023-04-24T02:55:04;4.10;;;1.52;;
78781;SDS011;68126;55.748;48.742;2023-04-24T03:00:30;1.50;;;0.53;;
78781;SDS011;68126;55.748;48.742;2023-04-24T03:05:54;2.75;;;1.35;;
78781;SDS011;68126;55.748;48.742;2023-04-24T03:11:19;4.00;;;1.42;;
78781;SDS011;68126;55.748;48.742;2023-04-24T03:16:44;2.75;;;1.30;;
78781;SDS011;68126;55.748;48.742;2023-04-24T03:22:08;2.17;;;1.00;;
78781;SDS011;68126;55.748;48.742;2023-04-24T03:27:34;2.42;;;1.12;;
78781;SDS011;68126;55.748;48.742;2023-04-24T03:32:59;6.85;;;2.27;;
78781;SDS011;68126;55.748;48.742;2023-04-24T03:38:24;2.27;;;1.20;;
78781;SDS011;68126;55.748;48.742;2023-04-24T03:43:49;4.08;;;2.40;;
78781;SDS011;68126;55.748;48.742;2023-04-24T04:01:48;1.82;;;1.00;;
78781;SDS011;68126;55.748;48.742;2023-04-24T04:07:13;2.42;;;1.20;;
78781;SDS011;68126;55.748;48.742;2023-04-24T04:12:38;4.05;;;2.80;;
78781;SDS011;68126;55.748;48.742;2023-04-24T04:18:02;2.87;;;1.25;;
78781;SDS011;68126;55.748;48.742;2023-04-24T04:23:27;2.67;;;1.50;;
78781;SDS011;68126;55.748;48.742;2023-04-24T04:28:52;5.58;;;1.22;;
78781;SDS011;68126;55.748;48.742;2023-04-24T04:34:17;1.80;;;0.85;;
78781;SDS011;68126;55.748;48.742;2023-04-24T04:39:41;3.77;;;2.35;;
78781;SDS011;68126;55.748;48.742;2023-04-24T04:45:07;2.58;;;0.88;;
78781;SDS011;68126;55.748;48.742;2023-04-24T04:50:33;3.50;;;0.98;;
78781;SDS011;68126;55.748;48.742;2023-04-24T04:55:58;4.20;;;0.88;;
78781;SDS011;68126;55.748;48.742;2023-04-24T05:01:22;3.58;;;2.60;;
78781;SDS011;68126;55.748;48.742;2023-04-24T05:06:48;3.17;;;2.10;;
78781;SDS011;68126;55.748;48.742;2023-04-24T05:12:13;1.95;;;1.17;;
78781;SDS011;68126;55.748;48.742;2023-04-24T05:17:38;3.65;;;0.90;;
78781;SDS011;68126;55.748;48.742;2023-04-24T05:23:03;4.58;;;0.93;;
78781;SDS011;68126;55.748;48.742;2023-04-24T05:28:27;7.58;;;0.70;;
78781;SDS011;68126;55.748;48.742;2023-04-24T05:33:52;3.55;;;0.85;;
78781;SDS011;68126;55.748;48.742;2023-04-24T05:39:17;2.17;;;1.05;;
78781;SDS011;68126;55.748;48.742;2023-04-24T05:44:42;1.92;;;0.60;;
78781;SDS011;68126;55.748;48.742;2023-04-24T05:50:07;3.27;;;1.07;;
78781;SDS011;68126;55.748;48.742;2023-04-24T05:55:32;5.45;;;0.70;;
78781;SDS011;68126;55.748;48.742;2023-04-24T06:00:57;3.37;;;1.12;;
78781;SDS011;68126;55.748;48.742;2023-04-24T06:12:08;4.67;;;0.78;;
78781;SDS011;68126;55.748;48.742;2023-04-24T06:17:33;1.77;;;0.93;;
78781;SDS011;68126;55.748;48.742;2023-04-24T06:22:59;6.00;;;1.75;;
78781;SDS011;68126;55.748;48.742;2023-04-24T06:28:24;1.50;;;0.72;;
78781;SDS011;68126;55.748;48.742;2023-04-24T06:34:24;3.47;;;1.15;;
78781;SDS011;68126;55.748;48.742;2023-04-24T06:39:22;3.58;;;1.25;;
78781;SDS011;68126;55.748;48.742;2023-04-24T06:44:46;2.60;;;0.80;;
78781;SDS011;68126;55.748;48.742;2023-04-24T06:50:16;3.22;;;0.88;;
78781;SDS011;68126;55.748;48.742;2023-04-24T06:55:40;1.55;;;0.53;;
78781;SDS011;68126;55.748;48.742;2023-04-24T07:01:25;1.98;;;1.07;;
78781;SDS011;68126;55.748;48.742;2023-04-24T07:06:49;4.15;;;1.00;;
78781;SDS011;68126;55.748;48.742;2023-04-24T07:12:16;3.55;;;1.30;;
78781;SDS011;68126;55.748;48.742;2023-04-24T07:17:44;1.77;;;0.80;;
78781;SDS011;68126;55.748;48.742;2023-04-24T07:23:09;2.30;;;1.20;;
78781;SDS011;68126;55.748;48.742;2023-04-24T07:28:46;4.30;;;0.75;;
78781;SDS011;68126;55.748;48.742;2023-04-24T08:02:59;1.52;;;0.42;;
78781;SDS011;68126;55.748;48.742;2023-04-24T08:14:02;1.77;;;0.68;;
78781;SDS011;68126;55.748;48.742;2023-04-24T08:25:28;1.40;;;0.70;;
78781;SDS011;68126;55.748;48.742;2023-04-24T08:36:24;3.35;;;0.62;;
78781;SDS011;68126;55.748;48.742;2023-04-24T08:47:39;1.17;;;0.53;;
78781;SDS011;68126;55.748;48.742;2023-04-24T09:17:41;5.28;;;0.60;;
78781;SDS011;68126;55.748;48.742;2023-04-24T09:23:06;2.98;;;0.70;;
78781;SDS011;68126;55.748;48.742;2023-04-24T09:28:34;2.72;;;0.70;;
78781;SDS011;68126;55.748;48.742;2023-04-24T09:34:00;3.95;;;0.80;;
78781;SDS011;68126;55.748;48.742;2023-04-24T09:39:26;1.10;;;0.40;;
78781;SDS011;68126;55.748;48.742;2023-04-24T09:44:51;2.25;;;0.70;;
78781;SDS011;68126;55.748;48.742;2023-04-24T09:50:20;2.30;;;0.60;;
78781;SDS011;68126;55.748;48.742;2023-04-24T09:55:53;2.08;;;0.68;;
78781;SDS011;68126;55.748;48.742;2023-04-24T10:01:29;6.92;;;0.60;;
78781;SDS011;68126;55.748;48.742;2023-04-24T10:12:07;4.87;;;1.32;;
78781;SDS011;68126;55.748;48.742;2023-04-24T10:17:33;1.77;;;0.40;;
78781;SDS011;68126;55.748;48.742;2023-04-24T10:23:01;2.50;;;0.35;;
78781;SDS011;68126;55.748;48.742;2023-04-24T10:28:25;1.17;;;0.37;;
78781;SDS011;68126;55.748;48.742;2023-04-24T10:33:52;2.40;;;0.82;;
78781;SDS011;68126;55.748;48.742;2023-04-24T10:39:17;4.58;;;0.62;;
78781;SDS011;68126;55.748;48.742;2023-04-24T10:44:46;3.15;;;0.60;;
78781;SDS011;68126;55.748;48.742;2023-04-24T10:50:11;3.25;;;0.55;;
78781;SDS011;68126;55.748;48.742;2023-04-24T11:07:05;3.30;;;0.75;;
78781;SDS011;68126;55.748;48.742;2023-04-24T11:18:18;4.12;;;0.80;;
78781;SDS011;68126;55.748;48.742;2023-04-24T11:23:45;2.20;;;0.65;;
78781;SDS011;68126;55.748;48.742;2023-04-24T11:29:09;2.55;;;0.68;;
78781;SDS011;68126;55.748;48.742;2023-04-24T11:34:34;1.82;;;1.00;;
78781;SDS011;68126;55.748;48.742;2023-04-24T11:39:59;1.90;;;0.80;;
78781;SDS011;68126;55.748;48.742;2023-04-24T11:45:26;3.30;;;0.50;;
78781;SDS011;68126;55.748;48.742;2023-04-24T11:51:26;6.87;;;0.98;;
78781;SDS011;68126;55.748;48.742;2023-04-24T11:56:18;3.47;;;0.65;;
78781;SDS011;68126;55.748;48.742;2023-04-24T12:01:44;1.70;;;0.65;;
78781;SDS011;68126;55.748;48.742;2023-04-24T12:12:32;2.50;;;0.37;;
78781;SDS011;68126;55.748;48.742;2023-04-24T12:17:59;3.35;;;1.37;;
78781;SDS011;68126;55.748;48.742;2023-04-24T12:29:08;3.83;;;0.40;;
78781;SDS011;68126;55.748;48.742;2023-04-24T12:34:34;2.95;;;1.20;;
78781;SDS011;68126;55.748;48.742;2023-04-24T12:45:43;3.33;;;0.95;;
78781;SDS011;68126;55.748;48.742;2023-04-24T12:51:13;2.00;;;0.35;;
78781;SDS011;68126;55.748;48.742;2023-04-24T12:56:37;8.25;;;0.72;;
78781;SDS011;68126;55.748;48.742;2023-04-24T13:02:02;2.42;;;1.65;;
78781;SDS011;68126;55.748;48.742;2023-04-24T13:07:29;2.22;;;0.88;;
78781;SDS011;68126;55.748;48.742;2023-04-24T13:12:53;2.40;;;1.35;;
78781;SDS011;68126;55.748;48.742;2023-04-24T13:18:18;5.50;;;0.62;;
78781;SDS011;68126;55.748;48.742;2023-04-24T13:23:42;2.45;;;0.80;;
78781;SDS011;68126;55.748;48.742;2023-04-24T13:29:09;1.50;;;0.80;;
78781;SDS011;68126;55.748;48.742;2023-04-24T13:34:54;6.03;;;1.10;;
78781;SDS011;68126;55.748;48.742;2023-04-24T13:40:21;3.80;;;1.32;;
78781;SDS011;68126;55.748;48.742;2023-04-24T13:45:46;2.20;;;1.20;;
78781;SDS011;68126;55.748;48.742;2023-04-24T13:51:14;2.35;;;0.75;;
78781;SDS011;68126;55.748;48.742;2023-04-24T13:56:39;4.40;;;0.75;;
78781;SDS011;68126;55.748;48.742;2023-04-24T14:13:21;2.33;;;0.65;;
78781;SDS011;68126;55.748;48.742;2023-04-24T14:18:50;3.70;;;1.05;;
78781;SDS011;68126;55.748;48.742;2023-04-24T14:24:15;2.77;;;0.90;;
78781;SDS011;68126;55.748;48.742;2023-04-24T14:30:03;2.60;;;1.17;;
78781;SDS011;68126;55.748;48.742;2023-04-24T14:35:29;2.05;;;0.53;;
78781;SDS011;68126;55.748;48.742;2023-04-24T14:46:20;2.85;;;0.53;;
78781;SDS011;68126;55.748;48.742;2023-04-24T14:57:30;2.45;;;0.50;;
78781;SDS011;68126;55.748;48.742;2023-04-24T15:02:54;1.25;;;0.50;;
78781;SDS011;68126;55.748;48.742;2023-04-24T15:08:19;3.15;;;0.60;;
78781;SDS011;68126;55.748;48.742;2023-04-24T15:13:44;2.80;;;0.82;;
78781;SDS011;68126;55.748;48.742;2023-04-24T15:19:12;4.80;;;0.88;;
78781;SDS011;68126;55.748;48.742;2023-04-24T15:35:59;1.42;;;0.62;;
78781;SDS011;68126;55.748;48.742;2023-04-24T15:41:26;5.37;;;1.05;;
78781;SDS011;68126;55.748;48.742;2023-04-24T15:57:58;8.03;;;2.33;;
78781;SDS011;68126;55.748;48.742;2023-04-24T16:03:23;7.90;;;1.65;;
78781;SDS011;68126;55.748;48.742;2023-04-24T16:08:47;2.17;;;0.80;;
78781;SDS011;68126;55.748;48.742;2023-04-24T16:14:12;2.62;;;0.98;;
78781;SDS011;68126;55.748;48.742;2023-04-24T16:19:37;3.83;;;0.85;;
78781;SDS011;68126;55.748;48.742;2023-04-24T16:25:02;2.30;;;1.17;;
78781;SDS011;68126;55.748;48.742;2023-04-24T16:30:27;5.30;;;1.22;;
78781;SDS011;68126;55.748;48.742;2023-04-24T16:35:51;4.00;;;1.30;;
78781;SDS011;68126;55.748;48.742;2023-04-24T16:41:16;6.75;;;1.12;;
78781;SDS011;68126;55.748;48.742;2023-04-24T16:46:41;4.53;;;1.70;;
78781;SDS011;68126;55.748;48.742;2023-04-24T16:52:06;7.37;;;2.00;;
78781;SDS011;68126;55.748;48.742;2023-04-24T16:57:30;6.58;;;2.17;;
78781;SDS011;68126;55.748;48.742;2023-04-24T17:02:56;9.53;;;1.72;;
78781;SDS011;68126;55.748;48.742;2023-04-24T17:08:20;5.08;;;1.87;;
78781;SDS011;68126;55.748;48.742;2023-04-24T17:13:45;4.58;;;1.95;;
78781;SDS011;68126;55.748;48.742;2023-04-24T17:19:10;4.92;;;2.00;;
78781;SDS011;68126;55.748;48.742;2023-04-24T17:24:35;2.75;;;1.87;;
78781;SDS011;68126;55.748;48.742;2023-04-24T17:35:28;5.37;;;2.22;;
78781;SDS011;68126;55.748;48.742;2023-04-24T17:40:53;5.60;;;2.22;;
78781;SDS011;68126;55.748;48.742;2023-04-24T17:46:17;5.08;;;1.98;;
78781;SDS011;68126;55.748;48.742;2023-04-24T17:51:42;5.60;;;1.67;;
78781;SDS011;68126;55.748;48.742;2023-04-24T17:57:07;9.75;;;2.45;;
78781;SDS011;68126;55.748;48.742;2023-04-24T18:02:31;3.67;;;2.17;;
78781;SDS011;68126;55.748;48.742;2023-04-24T18:08:00;5.53;;;1.92;;
78781;SDS011;68126;55.748;48.742;2023-04-24T18:13:27;2.87;;;1.70;;
78781;SDS011;68126;55.748;48.742;2023-04-24T18:24:41;5.60;;;1.90;;
78781;SDS011;68126;55.748;48.742;2023-04-24T18:30:09;2.55;;;1.85;;
78781;SDS011;68126;55.748;48.742;2023-04-24T18:46:47;2.52;;;1.80;;
78781;SDS011;68126;55.748;48.742;2023-04-24T18:52:12;3.17;;;1.80;;
78781;SDS011;68126;55.748;48.742;2023-04-24T18:57:37;4.28;;;1.57;;
78781;SDS011;68126;55.748;48.742;2023-04-24T19:03:02;7.10;;;2.00;;
78781;SDS011;68126;55.748;48.742;2023-04-24T19:08:26;3.58;;;2.20;;
78781;SDS011;68126;55.748;48.742;2023-04-24T19:13:51;4.03;;;2.15;;
78781;SDS011;68126;55.748;48.742;2023-04-24T19:19:19;4.08;;;1.85;;
78781;SDS011;68126;55.748;48.742;2023-04-24T19:24:44;4.47;;;2.40;;
78781;SDS011;68126;55.748;48.742;2023-04-24T19:30:10;6.92;;;2.00;;
78781;SDS011;68126;55.748;48.742;2023-04-24T19:35:34;8.00;;;2.55;;
78781;SDS011;68126;55.748;48.742;2023-04-24T19:41:00;4.70;;;2.45;;
78781;SDS011;68126;55.748;48.742;2023-04-24T19:46:24;5.37;;;2.30;;
78781;SDS011;68126;55.748;48.742;2023-04-24T19:51:49;3.00;;;2.22;;
78781;SDS011;68126;55.748;48.742;2023-04-24T19:57:14;4.62;;;2.02;;
78781;SDS011;68126;55.748;48.742;2023-04-24T20:02:39;10.53;;;2.17;;
78781;SDS011;68126;55.748;48.742;2023-04-24T20:08:36;4.87;;;2.40;;
78781;SDS011;68126;55.748;48.742;2023-04-24T20:18:55;5.28;;;2.10;;
78781;SDS011;68126;55.748;48.742;2023-04-24T20:24:20;4.40;;;2.20;;
78781;SDS011;68126;55.748;48.742;2023-04-24T20:29:44;7.03;;;2.50;;
78781;SDS011;68126;55.748;48.742;2023-04-24T20:35:09;5.33;;;3.75;;
78781;SDS011;68126;55.748;48.742;2023-04-24T20:40:34;6.20;;;2.67;;
78781;SDS011;68126;55.748;48.742;2023-04-24T20:45:59;9.33;;;2.02;;
78781;SDS011;68126;55.748;48.742;2023-04-24T20:51:24;4.45;;;2.42;;
78781;SDS011;68126;55.748;48.742;2023-04-24T20:56:49;4.28;;;2.47;;
78781;SDS011;68126;55.748;48.742;2023-04-24T21:02:16;5.03;;;1.72;;
78781;SDS011;68126;55.748;48.742;2023-04-24T21:07:40;6.17;;;2.72;;
78781;SDS011;68126;55.748;48.742;2023-04-24T21:13:07;9.45;;;2.70;;
78781;SDS011;68126;55.748;48.742;2023-04-24T21:18:31;6.92;;;2.10;;
78781;SDS011;68126;55.748;48.742;2023-04-24T21:23:58;5.28;;;2.80;;
78781;SDS011;68126;55.748;48.742;2023-04-24T21:29:24;4.90;;;2.20;;
78781;SDS011;68126;55.748;48.742;2023-04-24T21:34:49;7.45;;;3.12;;
78781;SDS011;68126;55.748;48.742;2023-04-24T21:40:15;2.83;;;2.05;;
78781;SDS011;68126;55.748;48.742;2023-04-24T21:45:40;4.97;;;2.58;;
78781;SDS011;68126;55.748;48.742;2023-04-24T21:51:05;4.78;;;2.25;;
78781;SDS011;68126;55.748;48.742;2023-04-24T21:56:50;4.35;;;2.27;;
78781;SDS011;68126;55.748;48.742;2023-04-24T22:02:15;7.72;;;2.30;;
78781;SDS011;68126;55.748;48.742;2023-04-24T22:07:40;10.78;;;2.25;;
78781;SDS011;68126;55.748;48.742;2023-04-24T22:13:25;4.45;;;2.85;;
78781;SDS011;68126;55.748;48.742;2023-04-24T22:19:10;9.33;;;2.35;;
78781;SDS011;68126;55.748;48.742;2023-04-24T22:24:34;5.78;;;2.00;;
78781;SDS011;68126;55.748;48.742;2023-04-24T22:29:59;4.42;;;1.95;;
78781;SDS011;68126;55.748;48.742;2023-04-24T22:35:24;6.25;;;2.55;;
78781;SDS011;68126;55.748;48.742;2023-04-24T22:46:16;5.72;;;2.33;;
78781;SDS011;68126;55.748;48.742;2023-04-24T22:51:40;5.62;;;2.80;;
78781;SDS011;68126;55.748;48.742;2023-04-24T22:57:05;5.83;;;2.30;;
78781;SDS011;68126;55.748;48.742;2023-04-24T23:02:30;3.95;;;2.10;;
78781;SDS011;68126;55.748;48.742;2023-04-24T23:08:27;5.42;;;2.40;;
78781;SDS011;68126;55.748;48.742;2023-04-24T23:13:21;5.50;;;2.40;;
78781;SDS011;68126;55.748;48.742;2023-04-24T23:18:47;4.33;;;2.10;;
78781;SDS011;68126;55.748;48.742;2023-04-24T23:24:14;3.10;;;1.85;;
78781;SDS011;68126;55.748;48.742;2023-04-24T23:29:39;4.55;;;2.22;;
78781;SDS011;68126;55.748;48.742;2023-04-24T23:35:03;5.90;;;3.58;;
78781;SDS011;68126;55.748;48.742;2023-04-24T23:40:29;3.98;;;2.35;;
78781;SDS011;68126;55.748;48.742;2023-04-24T23:45:54;5.20;;;2.12;;
78781;SDS011;68126;55.748;48.742;2023-04-24T23:51:19;4.72;;;1.80;;
78781;SDS011;68126;55.748;48.742;2023-04-24T23:56:44;4.15;;;2.25;;
